Muenster, Germany

10:55 AM CEST on October 24, 2014 (GMT +0200)
Munster-Osnabruck | Change Station
CLOSE
Current Station
Airport
Location: Muenster,
Elevation: 157 ft
Nearby Weather Stations

Elev 157 ft 52.13 °N, 7.70 °E | Updated 5 minutes ago

Mostly Cloudy
Mostly Cloudy
54 °F
Feels Like 54 °F
N
8
Wind Variable Wind from South

Today
High -- | Low -- °F
--% Chance of Precip.
Yesterday
High -- | Low -- °F
Precip. -- in
8:09 AM 6:16 PM
New Moon, 0% visible
Pressure 30.15 in
Visibility 6.2 miles
Clouds Few 2500 ft
Scattered Clouds 12000 ft
Mostly Cloudy 25000 ft
Dew Point 48 °F
Humidity 82%
Rainfall 0.00 in
Snow Depth Not available.
UV 1 out of 12
Pollen Not available.
Air Quality Not available.
Flu Activity Not available.
METAR EDDG 240850Z 17007KT 9999 FEW025 SCT120 BKN250 12/09 Q1021 NOSIG

More Conditions Fewer Conditions

Pressure 30.15 in
Visibility 6.2 miles
Clouds Few 2500 ft
Scattered Clouds 12000 ft
Mostly Cloudy 25000 ft
Dew Point 48 °F
Humidity 82%
Rainfall 0.00 in
Snow Depth Not available.
UV 1 out of 12
Pollen Not available.
Air Quality Not available.
Flu Activity Not available.
METAR EDDG 240850Z 17007KT 9999 FEW025 SCT120 BKN250 12/09 Q1021 NOSIG

More Conditions Fewer Conditions

10-Day Weather Forecast

Almanac

Astronomy

Oct. 24, 2014 Rise Set
Actual Time 8:09 AM CEST 6:16 PM CEST
Civil Twilight 7:34 AM CEST 6:51 PM CEST
Nautical Twilight 6:55 AM CEST 7:30 PM CEST
Astronomical Twilight 6:16 AM CEST 8:09 PM CEST
Moon 8:35 AM CEST 6:40 PM CEST
Length of Visible Light 11h 16m
Length of Day
10h 06m
Tomorrow will be 3m 49s shorter.
New Moon, 0% of the Moon is Illuminated
Today
New Moon
Oct 30
First Quarter
Nov 6
Full
Nov 14
Last Quarter
Nov 22
New

Yesterday's Extremes

Country Highs Country Lows

Community

WunderPhotos

Upload Photos

1,764,511 photos uploaded!

WunderBlogs® & News

Nearby

Snow Depth

Not available.

Earthquake Activity

City Distance Mag. Time & Date
No recent earthquake activity has been reported nearby.
Minimum magnitude displayed is 2.5.

Coastal Water Temperatures

Place Temperature
No Stations Reporting

Nearby Weather Stations